createdAt,value
2022-11-29T00:01:51.781Z,19.63
2022-11-29T00:03:53.993Z,19.47
2022-11-29T00:05:55.800Z,19.53
2022-11-29T00:07:57.548Z,19.43
2022-11-29T00:09:59.219Z,19.84
2022-11-29T00:12:01.225Z,19.87
2022-11-29T00:14:03.016Z,19.85
2022-11-29T00:16:06.028Z,19.70
2022-11-29T00:18:07.868Z,19.41
2022-11-29T00:20:10.257Z,19.49
2022-11-29T00:22:11.950Z,19.38
2022-11-29T00:24:13.857Z,19.81
2022-11-29T00:26:15.597Z,19.29
2022-11-29T00:28:17.437Z,19.36
2022-11-29T00:30:19.949Z,19.32
2022-11-29T00:32:21.964Z,19.00
2022-11-29T00:34:23.647Z,19.50
2022-11-29T00:36:25.556Z,19.51
2022-11-29T00:38:27.979Z,19.26
2022-11-29T00:40:29.790Z,19.29
2022-11-29T00:42:31.538Z,19.15
2022-11-29T00:44:33.361Z,19.37
2022-11-29T00:46:35.182Z,19.40
2022-11-29T00:48:37.290Z,19.22
2022-11-29T00:50:38.997Z,19.39
2022-11-29T00:52:40.652Z,18.93
2022-11-29T00:54:42.912Z,19.04
2022-11-29T00:56:44.959Z,19.13
2022-11-29T00:58:46.895Z,19.38
2022-11-29T01:00:48.822Z,19.21
2022-11-29T01:02:50.556Z,19.30
2022-11-29T01:04:52.214Z,18.99
2022-11-29T01:06:53.829Z,19.36
2022-11-29T01:08:55.663Z,19.31
2022-11-29T01:11:09.306Z,19.40
2022-11-29T01:13:11.109Z,19.26
2022-11-29T01:15:13.229Z,19.22
2022-11-29T01:17:14.999Z,19.11
2022-11-29T01:19:16.916Z,19.10
2022-11-29T01:21:20.815Z,19.26
2022-11-29T01:23:22.491Z,19.41
2022-11-29T01:25:24.234Z,19.03
2022-11-29T01:27:26.246Z,19.04
2022-11-29T01:29:27.939Z,19.39
2022-11-29T01:31:31.657Z,19.32
2022-11-29T01:33:33.927Z,19.56
2022-11-29T01:35:35.649Z,19.63
2022-11-29T01:37:37.420Z,19.42
2022-11-29T01:39:39.241Z,19.12
2022-11-29T01:41:41.011Z,19.30
2022-11-29T01:43:56.292Z,19.18
2022-11-29T01:45:58.038Z,19.06
2022-11-29T01:47:59.752Z,19.38
2022-11-29T01:50:02.015Z,19.26
2022-11-29T01:52:19.983Z,19.37
2022-11-29T01:54:21.894Z,19.17
2022-11-29T01:56:23.932Z,19.45
2022-11-29T01:58:25.661Z,19.05
2022-11-29T02:00:27.426Z,18.85
2022-11-29T02:03:02.961Z,19.29
2022-11-29T02:05:05.224Z,19.24
2022-11-29T02:07:06.897Z,18.87
2022-11-29T02:09:18.926Z,18.69
2022-11-29T02:11:59.203Z,18.62
2022-11-29T02:14:15.875Z,18.83
2022-11-29T02:16:56.396Z,18.74
2022-11-29T02:19:17.211Z,19.00
2022-11-29T02:21:27.547Z,18.79
2022-11-29T02:23:47.328Z,18.74
2022-11-29T02:25:51.648Z,18.61
2022-11-29T02:28:14.801Z,19.11
2022-11-29T02:30:16.381Z,19.18
2022-11-29T02:32:29.775Z,18.90
2022-11-29T02:34:52.889Z,18.74
2022-11-29T02:37:32.543Z,19.04
2022-11-29T02:39:55.999Z,19.09
2022-11-29T02:42:32.827Z,18.88
2022-11-29T02:44:49.304Z,19.07
2022-11-29T02:47:06.199Z,19.01
2022-11-29T02:49:32.133Z,19.17
2022-11-29T02:52:03.462Z,18.75
2022-11-29T02:54:38.674Z,19.16
2022-11-29T02:56:52.170Z,18.93
2022-11-29T02:58:56.781Z,19.15
2022-11-29T03:01:16.708Z,18.88
2022-11-29T03:03:27.694Z,18.83
2022-11-29T03:05:55.634Z,18.55
2022-11-29T03:08:37.604Z,18.83
2022-11-29T03:10:59.409Z,18.74
2022-11-29T03:13:01.113Z,18.98
2022-11-29T03:15:31.784Z,18.78
2022-11-29T03:18:14.710Z,18.84
2022-11-29T03:20:50.148Z,18.99
2022-11-29T03:23:10.360Z,18.64
2022-11-29T03:25:33.149Z,18.95
2022-11-29T03:27:48.398Z,18.64
2022-11-29T03:30:00.239Z,18.65
2022-11-29T03:32:20.613Z,18.94
2022-11-29T03:34:47.723Z,18.66
2022-11-29T03:37:14.948Z,18.68
2022-11-29T03:39:43.817Z,18.74
2022-11-29T03:42:00.194Z,18.83
2022-11-29T03:44:44.306Z,18.80
2022-11-29T03:46:52.019Z,18.62
2022-11-29T03:48:56.576Z,18.45
2022-11-29T03:51:01.933Z,18.78
2022-11-29T03:53:12.965Z,18.50
2022-11-29T03:55:20.672Z,18.79
2022-11-29T03:57:29.337Z,18.56
2022-11-29T03:59:35.642Z,18.71
2022-11-29T04:01:56.154Z,18.84
2022-11-29T04:04:08.352Z,18.85
2022-11-29T04:06:25.531Z,18.52
2022-11-29T04:09:01.064Z,18.73
2022-11-29T04:11:30.942Z,18.99
2022-11-29T04:13:35.451Z,18.80
2022-11-29T04:15:37.001Z,18.86
2022-11-29T04:17:47.653Z,18.68
2022-11-29T04:20:17.340Z,19.06
2022-11-29T04:22:51.922Z,19.27
2022-11-29T04:25:06.037Z,18.44
2022-11-29T04:27:23.441Z,18.75
2022-11-29T04:29:48.892Z,18.46
2022-11-29T04:32:12.140Z,18.74
2022-11-29T04:34:16.467Z,19.02
2022-11-29T04:37:05.652Z,18.65
2022-11-29T04:39:35.120Z,18.55
2022-11-29T04:41:42.122Z,18.74
2022-11-29T04:44:11.107Z,19.27
2022-11-29T04:46:26.694Z,18.41
2022-11-29T04:48:54.228Z,18.55
2022-11-29T04:51:08.978Z,18.60
2022-11-29T04:53:31.924Z,18.67
2022-11-29T04:55:40.253Z,18.48
2022-11-29T04:57:51.978Z,18.42
2022-11-29T05:00:00.742Z,18.42
2022-11-29T05:02:31.475Z,18.51
2022-11-29T05:04:37.462Z,17.96
2022-11-29T05:07:06.439Z,18.06
2022-11-29T05:09:19.290Z,18.24
2022-11-29T05:11:32.911Z,17.85
2022-11-29T05:13:48.980Z,17.84
2022-11-29T05:15:55.104Z,17.71
2022-11-29T05:18:04.858Z,17.83
2022-11-29T05:20:47.021Z,17.73
2022-11-29T05:23:26.936Z,17.93
2022-11-29T05:25:42.630Z,17.95
2022-11-29T05:28:16.458Z,18.07
2022-11-29T05:30:24.710Z,17.73
2022-11-29T05:33:03.820Z,18.00
2022-11-29T05:35:40.792Z,17.53
2022-11-29T05:38:02.540Z,17.66
2022-11-29T05:40:32.404Z,17.80
2022-11-29T05:42:45.956Z,17.58
2022-11-29T05:44:59.639Z,17.83
2022-11-29T05:47:05.961Z,19.37
2022-11-29T05:49:31.455Z,20.19
2022-11-29T05:51:46.009Z,19.06
2022-11-29T05:54:07.368Z,19.86
2022-11-29T05:56:42.678Z,20.72
2022-11-29T05:58:58.501Z,20.83
2022-11-29T06:01:03.804Z,20.06
2022-11-29T06:03:26.523Z,20.59
2022-11-29T06:05:32.549Z,20.24
2022-11-29T06:07:55.203Z,19.65
2022-11-29T06:10:19.993Z,19.67
2022-11-29T06:12:23.212Z,19.55
2022-11-29T06:15:02.233Z,19.36
2022-11-29T06:17:38.974Z,19.03
2022-11-29T06:20:05.386Z,19.02
2022-11-29T06:22:09.823Z,19.15
2022-11-29T06:24:21.833Z,18.59
2022-11-29T06:26:51.329Z,18.89
2022-11-29T06:29:25.540Z,18.66
2022-11-29T06:31:29.949Z,18.65
2022-11-29T06:33:34.065Z,18.68
2022-11-29T06:35:46.921Z,18.62
2022-11-29T06:37:49.641Z,19.08
2022-11-29T06:39:51.487Z,18.38
2022-11-29T06:41:53.320Z,18.19
2022-11-29T06:43:55.299Z,17.91
2022-11-29T06:46:15.574Z,18.06
2022-11-29T06:48:27.481Z,18.45
2022-11-29T06:50:47.598Z,18.23
2022-11-29T06:53:04.403Z,18.21
2022-11-29T06:55:37.604Z,18.60
2022-11-29T06:58:07.089Z,18.19
2022-11-29T07:00:24.324Z,18.50
2022-11-29T07:02:44.732Z,18.59
2022-11-29T07:04:58.813Z,18.26
2022-11-29T07:07:00.656Z,18.55
2022-11-29T07:09:10.119Z,18.66
2022-11-29T07:11:12.431Z,18.23
2022-11-29T07:13:14.288Z,18.72
2022-11-29T07:15:17.718Z,18.40
2022-11-29T07:17:32.853Z,18.63
2022-11-29T07:19:41.216Z,18.36
2022-11-29T07:22:07.970Z,18.50
2022-11-29T07:24:34.480Z,18.47
2022-11-29T07:26:59.717Z,18.41
2022-11-29T07:29:11.541Z,18.80
2022-11-29T07:31:41.787Z,18.43
2022-11-29T07:33:50.350Z,18.89
2022-11-29T07:35:54.757Z,18.52
2022-11-29T07:38:14.913Z,18.56
2022-11-29T07:41:02.856Z,18.86
2022-11-29T07:43:37.445Z,18.81
2022-11-29T07:45:39.133Z,18.45
2022-11-29T07:47:40.814Z,18.42
2022-11-29T07:49:42.467Z,18.70
2022-11-29T07:51:44.086Z,18.79
2022-11-29T07:53:45.824Z,18.73
2022-11-29T07:55:47.710Z,18.72
2022-11-29T07:57:49.442Z,18.75
2022-11-29T07:59:51.114Z,18.69
2022-11-29T08:01:52.905Z,18.80
2022-11-29T08:03:54.594Z,18.45
2022-11-29T08:05:56.285Z,18.35
2022-11-29T08:07:58.045Z,18.44
2022-11-29T08:09:59.745Z,18.69
2022-11-29T08:12:01.331Z,18.74
2022-11-29T08:14:03.755Z,18.34
2022-11-29T08:16:05.647Z,18.61
2022-11-29T08:18:07.362Z,18.58
2022-11-29T08:20:09.894Z,18.48
2022-11-29T08:22:12.487Z,18.35
2022-11-29T08:24:14.140Z,18.40
2022-11-29T08:26:16.171Z,18.27
2022-11-29T08:28:17.768Z,18.30
2022-11-29T08:30:19.408Z,18.25
2022-11-29T08:32:21.077Z,18.39
2022-11-29T08:34:23.399Z,18.50
2022-11-29T08:36:25.085Z,18.58
2022-11-29T08:38:26.733Z,18.54
2022-11-29T08:40:28.441Z,18.31
2022-11-29T08:42:30.235Z,18.12
2022-11-29T08:44:31.830Z,18.59
2022-11-29T08:46:33.621Z,18.19
2022-11-29T08:48:35.449Z,18.24
2022-11-29T08:50:37.093Z,18.55
2022-11-29T08:52:39.826Z,18.32
2022-11-29T08:54:41.468Z,18.18
2022-11-29T08:57:30.993Z,18.23
2022-11-29T08:59:05.103Z,18.63
2022-11-29T09:01:13.203Z,18.53
2022-11-29T09:03:14.878Z,18.53
2022-11-29T09:05:16.622Z,18.41
2022-11-29T09:07:18.302Z,18.55
2022-11-29T09:09:20.012Z,18.57
2022-11-29T09:11:22.017Z,18.67
2022-11-29T09:13:23.731Z,18.43
2022-11-29T09:15:25.360Z,18.30
2022-11-29T09:17:27.091Z,18.08
2022-11-29T09:19:28.761Z,18.44
2022-11-29T09:21:31.492Z,17.97
2022-11-29T09:23:33.092Z,17.68
2022-11-29T09:25:34.730Z,17.75
2022-11-29T09:27:36.381Z,17.90
2022-11-29T09:29:38.042Z,17.96
2022-11-29T09:31:39.710Z,17.97
2022-11-29T09:33:41.380Z,17.85
2022-11-29T09:35:42.995Z,17.65
2022-11-29T09:37:44.693Z,17.62
2022-11-29T09:39:46.290Z,17.84
2022-11-29T09:42:06.190Z,17.36
2022-11-29T09:44:34.378Z,17.45
2022-11-29T09:47:17.350Z,17.52
2022-11-29T09:49:40.260Z,17.60
2022-11-29T09:52:04.914Z,17.63
2022-11-29T09:54:28.218Z,17.33
2022-11-29T09:56:42.633Z,17.47
2022-11-29T09:58:59.042Z,17.53
2022-11-29T10:01:06.189Z,17.43
2022-11-29T10:03:34.468Z,17.15
2022-11-29T10:05:41.378Z,17.23
2022-11-29T10:07:48.291Z,17.54
2022-11-29T10:09:52.559Z,17.77
2022-11-29T10:12:02.102Z,17.36
2022-11-29T10:14:11.188Z,17.47
2022-11-29T10:16:50.029Z,17.54
2022-11-29T10:19:26.356Z,17.49
2022-11-29T10:21:34.427Z,17.92
2022-11-29T10:23:37.249Z,17.71
2022-11-29T10:25:59.057Z,18.15
2022-11-29T10:28:00.809Z,17.57
2022-11-29T10:30:02.445Z,17.51
2022-11-29T10:32:10.463Z,17.78
2022-11-29T10:34:13.998Z,17.50
2022-11-29T10:36:36.877Z,17.80
2022-11-29T10:38:38.600Z,17.50
2022-11-29T10:40:40.313Z,17.45
2022-11-29T10:42:41.909Z,17.67
2022-11-29T10:44:43.790Z,17.42
2022-11-29T10:46:45.780Z,17.40
2022-11-29T10:48:47.440Z,17.60
2022-11-29T10:50:50.196Z,17.45
2022-11-29T10:52:59.808Z,17.26
2022-11-29T10:55:01.763Z,17.41
2022-11-29T10:57:06.049Z,17.63
2022-11-29T10:59:07.695Z,17.59
2022-11-29T11:01:12.536Z,17.00
2022-11-29T11:03:36.424Z,17.27
2022-11-29T11:05:38.078Z,16.98
2022-11-29T11:07:39.772Z,17.29
2022-11-29T11:09:47.189Z,17.07
2022-11-29T11:11:53.039Z,16.91
2022-11-29T11:14:02.873Z,17.15
2022-11-29T11:16:18.429Z,17.42
2022-11-29T11:18:21.783Z,17.19
2022-11-29T11:20:24.135Z,16.98
2022-11-29T11:22:25.792Z,17.35
2022-11-29T11:24:29.561Z,17.24
2022-11-29T11:26:44.603Z,17.34
2022-11-29T11:29:02.272Z,17.23
2022-11-29T11:31:05.692Z,16.88
2022-11-29T11:33:18.748Z,17.14
2022-11-29T11:35:23.725Z,17.02
2022-11-29T11:54:54.568Z,17.07
2022-11-29T11:56:56.264Z,16.95
2022-11-29T11:58:57.952Z,17.21
2022-11-29T12:01:30.728Z,17.18
2022-11-29T12:03:52.500Z,16.74
2022-11-29T12:05:55.732Z,16.89
2022-11-29T12:08:07.826Z,17.11
2022-11-29T12:10:20.683Z,16.76
2022-11-29T12:12:30.110Z,17.17
2022-11-29T12:14:36.927Z,16.77
2022-11-29T12:16:38.630Z,16.59
2022-11-29T12:18:47.153Z,16.90
2022-11-29T12:20:58.562Z,16.81
2022-11-29T12:23:11.525Z,16.68
2022-11-29T12:25:15.949Z,16.56
2022-11-29T12:27:17.450Z,16.83
2022-11-29T12:29:19.875Z,16.66
2022-11-29T12:31:21.552Z,16.61
2022-11-29T12:33:49.194Z,16.54
2022-11-29T12:36:19.260Z,16.77
2022-11-29T12:38:40.607Z,16.87
2022-11-29T12:41:13.671Z,16.48
2022-11-29T12:43:37.539Z,16.68
2022-11-29T12:45:45.240Z,17.01
2022-11-29T12:48:04.783Z,16.65
2022-11-29T12:50:46.853Z,17.02
2022-11-29T12:53:28.862Z,17.48
2022-11-29T12:55:51.806Z,17.67
2022-11-29T12:58:03.332Z,17.66
2022-11-29T13:00:11.081Z,17.17
2022-11-29T13:02:45.200Z,17.80
2022-11-29T13:04:58.133Z,18.01
2022-11-29T13:07:15.182Z,17.67
2022-11-29T13:09:41.261Z,17.53
2022-11-29T13:12:04.577Z,17.19
2022-11-29T13:14:41.569Z,17.50
2022-11-29T13:16:43.602Z,17.45
2022-11-29T13:18:50.829Z,17.46
2022-11-29T13:21:09.672Z,17.50
2022-11-29T13:23:45.939Z,17.36
2022-11-29T13:25:57.585Z,17.38
2022-11-29T13:28:21.440Z,17.28
2022-11-29T13:30:23.848Z,17.39
2022-11-29T13:32:35.601Z,18.59
2022-11-29T13:34:42.503Z,18.21
2022-11-29T13:37:02.431Z,18.08
2022-11-29T13:39:34.453Z,18.09
2022-11-29T13:41:55.299Z,17.79
2022-11-29T13:44:03.701Z,17.80
2022-11-29T13:46:43.757Z,18.23
2022-11-29T13:48:52.095Z,18.39
2022-11-29T13:50:53.820Z,19.23
2022-11-29T13:53:03.600Z,17.81
2022-11-29T13:55:11.360Z,17.54
2022-11-29T13:57:13.006Z,17.88
2022-11-29T13:59:19.736Z,18.13
2022-11-29T14:01:21.862Z,18.22
2022-11-29T14:03:23.510Z,17.89
2022-11-29T14:05:26.640Z,17.46
2022-11-29T14:07:28.605Z,17.84
2022-11-29T14:09:59.287Z,17.98
2022-11-29T14:12:05.881Z,17.48
2022-11-29T14:14:08.518Z,17.51
2022-11-29T14:16:35.075Z,17.54
2022-11-29T14:18:36.679Z,17.93
2022-11-29T14:20:41.167Z,17.69
2022-11-29T14:23:05.782Z,17.82
2022-11-29T14:25:49.607Z,18.58
2022-11-29T14:27:47.203Z,18.13
2022-11-29T14:29:48.969Z,18.44
2022-11-29T14:31:51.167Z,17.97
2022-11-29T14:34:05.763Z,17.80
2022-11-29T14:36:16.242Z,17.91
2022-11-29T14:38:59.292Z,18.66
2022-11-29T14:41:14.936Z,18.29
2022-11-29T14:43:20.857Z,19.65
2022-11-29T14:45:28.003Z,17.72
2022-11-29T14:47:47.530Z,18.10
2022-11-29T14:49:49.297Z,17.89
2022-11-29T14:52:27.426Z,18.18
2022-11-29T14:54:29.260Z,17.72
2022-11-29T14:56:30.893Z,17.58
2022-11-29T14:58:32.536Z,17.74
2022-11-29T15:00:49.310Z,18.00
2022-11-29T15:02:53.553Z,18.15
2022-11-29T15:04:56.278Z,18.39
2022-11-29T15:06:58.009Z,17.87
2022-11-29T15:09:15.823Z,18.26
2022-11-29T15:11:29.228Z,17.79
2022-11-29T15:13:32.792Z,17.86
2022-11-29T15:16:07.411Z,17.68
2022-11-29T15:18:19.316Z,17.75
2022-11-29T15:20:39.185Z,17.88
2022-11-29T15:22:50.215Z,17.98
2022-11-29T15:24:57.117Z,17.94
2022-11-29T15:27:00.431Z,17.44
2022-11-29T15:29:14.680Z,17.52
2022-11-29T15:31:19.280Z,17.24
2022-11-29T15:33:26.985Z,17.47
2022-11-29T15:35:28.734Z,17.42
2022-11-29T15:37:36.605Z,17.31
2022-11-29T15:39:38.296Z,17.62
2022-11-29T15:41:41.203Z,17.81
2022-11-29T15:43:43.929Z,17.72
2022-11-29T15:45:50.372Z,17.57
2022-11-29T15:47:52.462Z,17.62
2022-11-29T15:49:55.980Z,17.76
2022-11-29T15:52:04.744Z,16.79
2022-11-29T15:54:13.201Z,16.66
2022-11-29T15:56:19.097Z,16.77
2022-11-29T15:58:22.125Z,16.58
2022-11-29T16:00:23.908Z,17.32
2022-11-29T16:02:30.116Z,17.71
2022-11-29T16:04:32.207Z,17.90
2022-11-29T16:06:43.135Z,17.75
2022-11-29T16:08:44.947Z,18.27
2022-11-29T16:10:48.092Z,18.45
2022-11-29T16:12:56.527Z,17.60
2022-11-29T16:15:00.022Z,17.92
2022-11-29T16:17:01.813Z,18.06
2022-11-29T16:19:10.369Z,16.89
2022-11-29T16:21:29.231Z,17.71
2022-11-29T16:23:38.708Z,16.80
2022-11-29T16:26:04.243Z,17.45
2022-11-29T16:28:12.358Z,17.01
2022-11-29T16:30:24.695Z,17.32
2022-11-29T16:32:42.050Z,17.28
2022-11-29T16:34:44.463Z,17.09
2022-11-29T16:36:46.450Z,17.20
2022-11-29T16:38:52.943Z,16.72
2022-11-29T16:41:06.530Z,16.88
2022-11-29T16:43:21.256Z,16.81
2022-11-29T16:45:36.418Z,17.76
2022-11-29T16:47:49.772Z,16.95
2022-11-29T16:50:16.900Z,16.80
2022-11-29T16:52:30.121Z,17.62
2022-11-29T16:54:32.289Z,16.61
2022-11-29T16:56:34.114Z,17.61
2022-11-29T16:58:41.727Z,17.09
2022-11-29T17:00:57.690Z,17.50
2022-11-29T17:02:59.765Z,17.66
2022-11-29T17:05:01.626Z,18.08
2022-11-29T17:07:05.503Z,16.79
2022-11-29T17:09:07.257Z,16.63
2022-11-29T17:11:13.755Z,16.49
2022-11-29T17:13:15.638Z,16.92
2022-11-29T17:15:17.344Z,17.01
2022-11-29T17:17:19.477Z,17.15
2022-11-29T17:19:23.248Z,17.42
2022-11-29T17:21:26.535Z,17.62
2022-11-29T17:23:28.477Z,17.84
2022-11-29T17:25:30.384Z,16.93
2022-11-29T17:27:32.167Z,17.18
2022-11-29T17:29:34.147Z,17.58
2022-11-29T17:31:36.191Z,18.04
2022-11-29T17:33:38.045Z,16.75
2022-11-29T17:35:39.803Z,17.12
2022-11-29T17:37:41.680Z,17.38
2022-11-29T17:39:44.048Z,16.91
2022-11-29T17:41:46.525Z,17.83
2022-11-29T17:43:49.274Z,17.32
2022-11-29T17:45:51.304Z,18.04
2022-11-29T17:47:53.028Z,17.16
2022-11-29T17:49:54.872Z,16.88
2022-11-29T17:51:56.721Z,16.66
2022-11-29T17:53:58.503Z,17.30
2022-11-29T17:56:10.554Z,16.37
2022-11-29T17:58:13.093Z,18.36
2022-11-29T18:00:15.488Z,16.18
2022-11-29T18:02:20.402Z,16.25
2022-11-29T18:04:22.211Z,16.10
2022-11-29T18:06:26.087Z,18.26
2022-11-29T18:08:28.053Z,17.53
2022-11-29T18:10:29.870Z,17.02
2022-11-29T18:12:31.741Z,17.32
2022-11-29T18:14:33.818Z,17.12
2022-11-29T18:16:35.664Z,17.35
2022-11-29T18:18:37.932Z,17.24
2022-11-29T18:20:39.702Z,17.45
2022-11-29T18:22:41.442Z,16.97
2022-11-29T18:24:43.324Z,17.53
2022-11-29T18:26:45.063Z,17.54
2022-11-29T18:28:47.222Z,17.64
2022-11-29T18:30:49.114Z,17.92
2022-11-29T18:32:51.174Z,16.45
2022-11-29T18:34:52.909Z,17.48
2022-11-29T18:36:54.846Z,15.85
2022-11-29T18:39:00.791Z,15.58
2022-11-29T18:41:09.903Z,15.65
2022-11-29T18:43:12.895Z,16.18
2022-11-29T18:45:14.626Z,16.07
2022-11-29T18:47:16.648Z,15.36
2022-11-29T18:49:18.748Z,16.21
2022-11-29T18:51:20.575Z,15.97
2022-11-29T18:53:22.341Z,16.23
2022-11-29T18:55:25.411Z,15.84
2022-11-29T18:57:27.216Z,15.54
2022-11-29T18:59:29.297Z,15.44
2022-11-29T19:01:32.183Z,15.77
2022-11-29T19:03:36.091Z,15.85
2022-11-29T19:05:38.055Z,16.04
2022-11-29T19:07:39.882Z,16.05
2022-11-29T19:09:41.528Z,16.01
2022-11-29T19:11:43.392Z,15.86
2022-11-29T19:13:45.421Z,15.96
2022-11-29T19:15:54.529Z,16.23
2022-11-29T19:17:56.292Z,16.09
2022-11-29T19:19:58.112Z,16.23
2022-11-29T19:21:59.948Z,16.72
2022-11-29T19:24:03.580Z,16.37
2022-11-29T19:26:12.804Z,16.44
2022-11-29T19:28:14.683Z,16.60
2022-11-29T19:30:16.792Z,16.60
2022-11-29T19:32:18.571Z,16.90
2022-11-29T19:34:21.051Z,16.71
2022-11-29T19:36:23.567Z,16.44
2022-11-29T19:38:25.772Z,16.62
2022-11-29T19:40:27.482Z,16.43
2022-11-29T19:42:29.197Z,16.86
2022-11-29T19:44:39.082Z,16.66
2022-11-29T19:46:50.153Z,16.74
2022-11-29T19:48:52.690Z,16.82
2022-11-29T19:50:54.402Z,16.76
2022-11-29T19:52:56.689Z,16.84
2022-11-29T19:54:58.581Z,16.92
2022-11-29T19:57:00.704Z,16.87
2022-11-29T19:59:02.502Z,16.93
2022-11-29T20:01:06.033Z,17.03
2022-11-29T20:03:08.825Z,17.03
2022-11-29T20:05:10.657Z,16.75
2022-11-29T20:07:12.336Z,16.95
2022-11-29T20:09:13.982Z,16.80
2022-11-29T20:11:23.391Z,16.90
2022-11-29T20:13:25.120Z,16.66
2022-11-29T20:15:26.823Z,16.92
2022-11-29T20:17:28.613Z,17.09
2022-11-29T20:19:30.280Z,16.65
2022-11-29T20:21:32.934Z,16.95
2022-11-29T20:23:34.919Z,17.27
2022-11-29T20:25:36.808Z,16.96
2022-11-29T20:27:39.815Z,17.07
2022-11-29T20:29:42.637Z,17.01
2022-11-29T20:31:50.079Z,16.85
2022-11-29T20:33:53.244Z,16.77
2022-11-29T20:36:00.250Z,16.86
2022-11-29T20:38:10.988Z,16.42
2022-11-29T20:40:19.201Z,16.81
2022-11-29T20:42:57.516Z,16.91
2022-11-29T20:45:00.678Z,17.47
2022-11-29T20:47:17.372Z,17.48
2022-11-29T20:49:19.452Z,17.13
2022-11-29T20:51:48.154Z,17.58
2022-11-29T20:53:49.931Z,17.25
2022-11-29T20:55:51.587Z,17.02
2022-11-29T20:57:53.365Z,17.46
2022-11-29T20:59:55.082Z,17.16
2022-11-29T21:01:56.825Z,17.28
2022-11-29T21:03:58.537Z,17.71
2022-11-29T21:06:04.079Z,17.90
2022-11-29T21:08:05.955Z,17.84
2022-11-29T21:10:08.321Z,17.27
2022-11-29T21:12:10.918Z,17.85
2022-11-29T21:14:12.886Z,17.76
2022-11-29T21:16:14.998Z,17.82
2022-11-29T21:18:20.246Z,17.81
2022-11-29T21:20:23.622Z,18.00
2022-11-29T21:22:47.588Z,17.87
2022-11-29T21:25:19.895Z,17.92
2022-11-29T21:27:26.965Z,18.06
2022-11-29T21:29:28.886Z,17.77
2022-11-29T21:31:30.987Z,17.88
2022-11-29T21:33:33.042Z,18.05
2022-11-29T21:35:34.815Z,17.96
2022-11-29T21:37:36.593Z,17.93
2022-11-29T21:39:38.245Z,17.84
2022-11-29T21:41:39.973Z,18.31
2022-11-29T21:44:05.364Z,17.75
2022-11-29T21:46:03.435Z,18.09
2022-11-29T21:48:05.489Z,18.43
2022-11-29T21:50:07.825Z,17.87
2022-11-29T21:52:09.580Z,17.71
2022-11-29T21:54:11.206Z,17.94
2022-11-29T21:56:12.950Z,17.66
2022-11-29T21:58:14.610Z,18.09
2022-11-29T22:00:16.694Z,17.98
2022-11-29T22:02:18.475Z,17.90
2022-11-29T22:04:20.399Z,18.03
2022-11-29T22:06:22.183Z,17.57
2022-11-29T22:08:23.874Z,18.05
2022-11-29T22:10:25.555Z,17.99
2022-11-29T22:12:34.126Z,18.00
2022-11-29T22:14:36.566Z,17.84
2022-11-29T22:16:38.224Z,17.86
2022-11-29T22:18:39.838Z,17.91
2022-11-29T22:20:41.594Z,18.10
2022-11-29T22:22:43.324Z,17.67
2022-11-29T22:24:45.429Z,17.80
2022-11-29T22:26:47.580Z,17.85
2022-11-29T22:28:49.334Z,17.63
2022-11-29T22:30:51.021Z,18.16
2022-11-29T22:32:52.793Z,17.72
2022-11-29T22:34:54.596Z,17.63
2022-11-29T22:36:56.382Z,17.63
2022-11-29T22:38:58.149Z,17.86
2022-11-29T22:41:04.311Z,17.91
2022-11-29T22:43:06.118Z,17.78
2022-11-29T22:45:08.188Z,17.74
2022-11-29T22:47:10.021Z,17.82
2022-11-29T22:49:11.794Z,18.01
2022-11-29T22:51:15.347Z,17.63
2022-11-29T22:53:17.097Z,17.65
2022-11-29T22:55:18.798Z,17.58
2022-11-29T22:57:20.548Z,17.69
2022-11-29T22:59:22.230Z,17.62
2022-11-29T23:01:25.407Z,18.24
2022-11-29T23:03:27.187Z,17.84
2022-11-29T23:05:32.276Z,18.33
2022-11-29T23:07:34.385Z,18.14
2022-11-29T23:09:36.151Z,17.85
2022-11-29T23:11:38.354Z,18.19
2022-11-29T23:13:40.946Z,18.09
2022-11-29T23:15:42.655Z,17.71
2022-11-29T23:17:44.433Z,18.10
2022-11-29T23:19:46.126Z,17.83
2022-11-29T23:21:47.780Z,17.79
2022-11-29T23:23:55.831Z,17.72
2022-11-29T23:25:58.478Z,17.97
2022-11-29T23:28:00.215Z,18.01
2022-11-29T23:30:01.945Z,18.60
2022-11-29T23:32:03.869Z,18.42
2022-11-29T23:34:05.658Z,18.49
2022-11-29T23:36:08.095Z,18.35
2022-11-29T23:38:09.764Z,18.53
2022-11-29T23:40:11.817Z,18.24
2022-11-29T23:42:13.571Z,17.90
2022-11-29T23:44:15.205Z,18.13
2022-11-29T23:46:18.460Z,18.12
2022-11-29T23:48:20.270Z,18.26
2022-11-29T23:50:22.593Z,18.31
2022-11-29T23:52:24.294Z,18.44
2022-11-29T23:54:25.976Z,18.47
2022-11-29T23:56:27.713Z,18.36
2022-11-29T23:58:29.951Z,18.48
